Startpagina
METAR-TAF:

METAR-TAF

Vliegvelden :

Asunción, Paraguay

Aeropuerto Internacional Silvio Pettirossi

breedte: 25-16S, lengte: 057-38W, hoogte: 101 m

Actueel weer

Dit bericht is 42 minuten geleden gemaakt, om 08:00 UTC
Wind 4 kt uit het oostnoordoosten
Temperatuur 23°C
Vochtigheid 89%
Druk 1011 hPa
Zicht 10 km of meer
geen wolken onder 1500 m en geen cumulonimbus

METAR: SGAS 220800Z 07004KT CAVOK 23/21 Q1011

Tijdstip: 04:42 (08:42 UTC)

Verwachting

Dit bericht is 4 uur en het 2 minuten geleden gemaakt, om 04:40 UTC
Verwachting geldig van 22 om 06 UTC tot 23 om 06 UTC
Wind 4 kt uit het oosten
Zicht 10 km of meer
geen wolken onder 1500 m en geen cumulonimbus
Wijzigt naar
van 22 om 14 UTC tot 22 om 17 UTC
Wind 8 kt uit het noordnoordoosten
Zicht 10 km of meer
Verspreide wolken op 3300 ft
Wijzigt naar
van 22 om 22 UTC tot 23 om 01 UTC
Wind 3 kt uit het oosten
Zicht: 9000 m

TAF: SGAS 220440Z 2206/2306 08004KT CAVOK TX34/2219Z TN22/2209Z BECMG 2214/2217 02008KT 9999 SCT033 BECMG 2222/2301 08003KT 9000 NSC

Waarnemingen en weersverwachtingen van meer dan 4000 vliegvelden (METAR en TAF).

De beschikbare stations zijn de gele en rode punten op de kaart.

Ga met uw muis naar het station om de naam te zien.

Klik dan om waarnemingen en weersverwachtingen te zien.

kaart wijzigen: klik op de groene knoppen met een zwart kruis om in te zoomen, op de groene knop met een streepje om uit te zoomen of op de groene pijlen voor aangrenzende kaarten.


METAR-TAF: